Time;durP1;ratioP1;P1;durP2;ratioP2;P2;SDS_P1;SDS_P2;PMS_P1;PMS_P2;Temp;Humidity;BMP_temperature;BMP_pressure;BME280_temperature;BME280_humidity;BME280_pressure;Samples;Min_cycle;Max_cycle;Signal;HPM_P1;HPM_P2
2022/05/31 00:01:54;;;;;;;6.38;4.65;;;12.70;64.50;;;;;;5093957;28;20025;-74
2022/05/31 00:04:20;;;;;;;8.25;4.50;;;12.80;64.30;;;;;;5093906;28;20032;-74
2022/05/31 00:06:46;;;;;;;6.88;4.50;;;12.70;64.00;;;;;;5093872;28;20021;-74
2022/05/31 00:09:12;;;;;;;9.68;5.03;;;12.70;63.90;;;;;;5093796;28;20031;-74
2022/05/31 00:11:41;;;;;;;8.07;4.20;;;12.80;64.60;;;;;;5093798;28;20079;-74
2022/05/31 00:14:07;;;;;;;7.47;4.65;;;12.70;63.70;;;;;;5093757;28;20017;-73
2022/05/31 00:16:33;;;;;;;7.65;4.47;;;12.80;63.80;;;;;;5093697;28;20088;-74
2022/05/31 00:18:59;;;;;;;8.40;5.00;;;12.70;64.90;;;;;;5093664;28;20031;-74
2022/05/31 00:21:44;;;;;;;5.65;4.07;;;12.70;64.20;;;;;;5093659;28;20025;-74
2022/05/31 00:24:15;;;;;;;7.63;4.20;;;12.50;64.40;;;;;;5093764;28;20051;-74
2022/05/31 00:26:41;;;;;;;7.32;4.40;;;12.40;64.60;;;;;;5093605;28;20020;-73
2022/05/31 00:29:08;;;;;;;6.88;4.43;;;12.40;64.70;;;;;;5093404;28;20047;-74
2022/05/31 00:31:40;;;;;;;5.70;3.88;;;12.50;64.50;;;;;;5093524;28;20021;-74
2022/05/31 00:34:07;;;;;;;5.80;4.10;;;12.60;64.40;;;;;;5092461;28;20017;-74
2022/05/31 00:36:34;;;;;;;7.30;4.75;;;12.60;64.30;;;;;;5093451;28;20024;-73
2022/05/31 00:39:00;;;;;;;6.07;4.20;;;12.60;64.40;;;;;;5093410;28;20055;-74
2022/05/31 00:41:26;;;;;;;6.78;4.57;;;12.70;64.30;;;;;;5092293;28;20029;-74
2022/05/31 00:44:07;;;;;;;7.78;4.57;;;12.70;64.40;;;;;;5092506;28;20038;-73
2022/05/31 00:46:45;;;;;;;8.07;4.57;;;12.50;64.70;;;;;;5093438;28;20028;-74
2022/05/31 00:49:24;;;;;;;7.68;4.65;;;12.40;64.70;;;;;;5093236;28;20422;-74
2022/05/31 00:51:52;;;;;;;6.53;4.70;;;12.30;64.90;;;;;;5093000;28;20044;-74
2022/05/31 00:54:19;;;;;;;6.25;4.53;;;12.30;65.10;;;;;;5093351;28;20080;-73
2022/05/31 00:56:47;;;;;;;7.60;4.90;;;12.40;64.90;;;;;;5093226;28;20021;-74
2022/05/31 00:59:17;;;;;;;6.00;4.53;;;12.40;65.30;;;;;;5093224;28;20031;-74
2022/05/31 01:01:47;;;;;;;6.60;4.65;;;12.30;65.60;;;;;;5093186;28;20036;-74
2022/05/31 01:04:14;;;;;;;6.53;4.50;;;12.20;65.70;;;;;;5093114;28;20028;-74
2022/05/31 01:06:40;;;;;;;6.95;4.22;;;12.10;65.90;;;;;;5093110;28;20064;-74
2022/05/31 01:09:06;;;;;;;7.45;4.50;;;12.10;66.40;;;;;;5093040;28;20028;-74
2022/05/31 01:11:38;;;;;;;7.55;4.68;;;12.10;65.80;;;;;;5093051;28;20025;-74
2022/05/31 01:14:04;;;;;;;8.73;4.82;;;12.20;66.40;;;;;;5093114;28;20046;-74
2022/05/31 01:16:30;;;;;;;8.32;4.80;;;12.20;65.40;;;;;;5093160;28;20032;-74
2022/05/31 01:18:56;;;;;;;7.30;4.95;;;12.10;65.50;;;;;;5093002;28;20032;-74
2022/05/31 01:21:22;;;;;;;6.55;4.35;;;12.00;65.70;;;;;;5093006;28;20036;-74
2022/05/31 01:24:03;;;;;;;7.07;4.20;;;12.00;65.90;;;;;;5091904;28;20029;-73
2022/05/31 01:26:50;;;;;;;6.13;4.40;;;11.80;66.30;;;;;;5092984;28;20048;-73
2022/05/31 01:29:19;;;;;;;6.55;3.88;;;11.60;66.70;;;;;;5092830;28;20033;-74
2022/05/31 01:31:51;;;;;;;7.35;4.25;;;11.50;67.10;;;;;;5092898;28;20084;-73
2022/05/31 01:34:28;;;;;;;7.03;4.68;;;11.40;67.50;;;;;;5093057;28;20025;-74
2022/05/31 01:36:56;;;;;;;8.20;4.57;;;11.40;67.40;;;;;;5092854;28;20025;-74
2022/05/31 01:39:32;;;;;;;7.28;4.75;;;11.60;67.60;;;;;;5092804;28;20020;-74
2022/05/31 01:42:06;;;;;;;8.05;4.70;;;11.70;67.30;;;;;;5092930;28;20025;-74
2022/05/31 01:44:37;;;;;;;7.25;4.15;;;11.80;67.00;;;;;;5092931;28;20031;-74
2022/05/31 01:47:04;;;;;;;7.60;4.47;;;11.80;67.10;;;;;;5092877;28;20080;-74
2022/05/31 01:49:40;;;;;;;8.07;4.35;;;11.70;67.10;;;;;;5092613;28;20028;-73
2022/05/31 01:52:07;;;;;;;5.70;3.88;;;11.70;67.20;;;;;;5092522;28;20048;-73
2022/05/31 01:54:35;;;;;;;7.50;4.40;;;11.60;67.10;;;;;;5092633;28;20017;-74
2022/05/31 01:57:04;;;;;;;7.43;4.60;;;11.60;67.40;;;;;;5096037;28;20023;-74
2022/05/31 01:59:39;;;;;;;10.13;5.00;;;11.50;68.00;;;;;;5096360;28;20024;-74
2022/05/31 02:02:06;;;;;;;7.60;4.82;;;11.50;68.00;;;;;;5096361;28;20055;-74
2022/05/31 02:04:32;;;;;;;7.85;4.57;;;11.60;67.80;;;;;;5096250;28;20016;-74
2022/05/31 02:07:30;;;;;;;10.77;5.10;;;11.60;67.70;;;;;;5096234;28;20158;-73
2022/05/31 02:09:57;;;;;;;8.10;4.70;;;11.50;67.50;;;;;;5062513;28;20539;-74
2022/05/31 02:12:25;;;;;;;8.02;4.90;;;11.60;67.70;;;;;;5096114;28;20029;-73
2022/05/31 02:14:51;;;;;;;7.65;4.75;;;11.60;67.70;;;;;;5096062;28;20032;-74
2022/05/31 02:17:17;;;;;;;6.95;4.95;;;11.50;67.80;;;;;;5096057;28;20032;-73
2022/05/31 02:19:43;;;;;;;7.70;4.50;;;11.40;67.80;;;;;;5095974;28;20024;-74
2022/05/31 02:22:13;;;;;;;7.72;5.13;;;11.50;67.60;;;;;;5094929;28;20040;-74
2022/05/31 02:24:40;;;;;;;8.63;4.70;;;11.60;67.30;;;;;;5095976;28;20020;-74
2022/05/31 02:27:07;;;;;;;9.90;4.90;;;11.60;67.30;;;;;;5095863;28;20013;-74
2022/05/31 02:29:34;;;;;;;7.18;5.03;;;11.60;67.40;;;;;;5095692;28;20024;-73
2022/05/31 02:32:02;;;;;;;8.23;4.93;;;11.50;67.40;;;;;;5095773;28;20035;-74
2022/05/31 02:34:37;;;;;;;10.02;6.40;;;11.50;67.70;;;;;;5095751;28;20084;-74
2022/05/31 02:37:03;;;;;;;7.68;5.00;;;11.40;68.20;;;;;;5095717;28;20020;-74
2022/05/31 02:39:29;;;;;;;8.25;5.07;;;11.50;68.40;;;;;;5095722;28;20043;-74
2022/05/31 02:41:56;;;;;;;8.05;4.97;;;11.60;68.20;;;;;;5095605;28;20048;-74
2022/05/31 02:44:23;;;;;;;8.23;4.70;;;11.60;67.90;;;;;;5095524;28;20016;-73
2022/05/31 02:46:49;;;;;;;7.57;4.57;;;11.50;68.00;;;;;;5095509;28;20028;-74
2022/05/31 02:49:16;;;;;;;7.80;5.00;;;11.40;68.20;;;;;;5094345;28;20074;-73
2022/05/31 02:51:44;;;;;;;8.57;5.03;;;11.40;68.30;;;;;;5095269;28;20075;-73
2022/05/31 02:54:13;;;;;;;8.27;4.82;;;11.50;68.10;;;;;;5095412;28;20017;-74
2022/05/31 02:56:39;;;;;;;8.30;5.00;;;11.50;68.00;;;;;;5095338;28;20040;-73
2022/05/31 02:59:05;;;;;;;10.05;5.03;;;11.60;67.70;;;;;;5094342;28;20039;-73
2022/05/31 03:01:34;;;;;;;6.22;4.55;;;11.70;67.60;;;;;;5095186;28;20024;-73
2022/05/31 03:03:59;;;;;;;7.95;4.80;;;11.70;67.50;;;;;;5095198;28;20025;-74
2022/05/31 03:06:25;;;;;;;9.00;4.47;;;11.80;67.60;;;;;;5094757;28;20032;-74
2022/05/31 03:08:51;;;;;;;6.57;4.63;;;11.80;67.50;;;;;;5094465;28;20029;-74
2022/05/31 03:11:32;;;;;;;7.97;4.68;;;11.80;67.70;;;;;;5095033;28;20044;-74
2022/05/31 03:14:04;;;;;;;6.70;4.75;;;11.70;68.30;;;;;;5095024;28;20051;-74
2022/05/31 03:16:31;;;;;;;6.68;4.50;;;11.70;68.30;;;;;;5094999;28;20071;-73
2022/05/31 03:19:03;;;;;;;6.65;4.72;;;11.60;68.80;;;;;;5094902;28;20024;-74
2022/05/31 03:21:36;;;;;;;6.77;5.00;;;11.60;69.20;;;;;;5093868;28;20044;-74
2022/05/31 03:24:10;;;;;;;7.50;4.45;;;11.70;69.30;;;;;;5094758;28;20020;-74
2022/05/31 03:26:38;;;;;;;5.40;4.10;;;11.60;69.30;;;;;;5094783;28;20039;-74
2022/05/31 03:29:04;;;;;;;6.40;4.45;;;11.60;69.40;;;;;;5094538;28;20075;-74
2022/05/31 03:31:30;;;;;;;7.78;5.25;;;11.40;69.50;;;;;;5094393;28;20036;-73
2022/05/31 03:33:57;;;;;;;8.38;5.10;;;11.40;70.00;;;;;;5094566;28;20021;-73
2022/05/31 03:36:23;;;;;;;8.77;5.07;;;11.30;70.20;;;;;;5094493;28;20016;-74
2022/05/31 03:38:49;;;;;;;7.28;5.00;;;11.40;70.30;;;;;;5094332;28;20044;-74
2022/05/31 03:41:14;;;;;;;6.43;4.43;;;11.50;70.10;;;;;;5094446;28;20510;-74
2022/05/31 03:43:42;;;;;;;7.43;4.65;;;11.60;69.60;;;;;;5094359;28;20025;-74
2022/05/31 03:46:12;;;;;;;8.95;5.40;;;11.60;69.60;;;;;;5094311;28;20024;-73
2022/05/31 03:48:38;;;;;;;9.18;5.43;;;11.50;69.60;;;;;;5094268;28;20024;-73
2022/05/31 03:51:06;;;;;;;9.60;5.10;;;11.60;70.00;;;;;;5093953;28;20070;-73
2022/05/31 03:53:32;;;;;;;9.35;5.47;;;11.60;70.10;;;;;;5094256;28;20032;-74
2022/05/31 03:56:01;;;;;;;8.30;5.50;;;11.60;70.40;;;;;;5094126;28;20024;-73
2022/05/31 03:58:27;;;;;;;9.60;4.65;;;11.60;70.40;;;;;;5092813;28;20030;-73
2022/05/31 04:00:53;;;;;;;8.80;5.32;;;11.80;70.10;;;;;;5094012;28;20476;-73
2022/05/31 04:03:18;;;;;;;8.40;4.72;;;11.90;70.10;;;;;;5094027;28;20029;-74
2022/05/31 04:05:45;;;;;;;9.85;5.57;;;12.00;69.90;;;;;;5093942;28;20016;-74
2022/05/31 04:08:12;;;;;;;7.85;5.40;;;12.00;69.80;;;;;;5093870;28;20017;-73
2022/05/31 04:10:40;;;;;;;12.38;5.70;;;12.10;69.70;;;;;;5093802;28;20054;-74
2022/05/31 04:13:06;;;;;;;11.02;5.60;;;12.10;69.70;;;;;;5093780;28;20024;-74
2022/05/31 04:15:35;;;;;;;10.18;5.55;;;12.10;69.50;;;;;;5093750;28;20036;-73
2022/05/31 04:18:02;;;;;;;8.07;5.32;;;12.20;69.50;;;;;;5093713;28;20051;-74
2022/05/31 04:20:28;;;;;;;8.68;4.55;;;12.20;69.50;;;;;;5093662;28;20028;-74
2022/05/31 04:23:58;;;;;;;7.50;5.07;;;12.20;69.80;;;;;;5093644;28;20050;-74
2022/05/31 04:25:42;;;;;;;11.25;5.68;;;12.20;70.30;;;;;;5093450;28;20040;-74
2022/05/31 04:28:09;;;;;;;10.05;5.90;;;12.10;71.10;;;;;;5093514;28;20039;-73
2022/05/31 04:30:36;;;;;;;8.50;5.97;;;12.00;71.20;;;;;;5093488;28;20024;-74
2022/05/31 04:33:02;;;;;;;8.73;6.18;;;12.00;71.50;;;;;;5093466;28;20400;-73
2022/05/31 04:35:27;;;;;;;16.98;6.75;;;11.90;71.90;;;;;;5093448;28;20023;-73
2022/05/31 04:37:53;;;;;;;8.48;6.30;;;11.90;72.00;;;;;;5093446;28;20407;-73
2022/05/31 04:40:19;;;;;;;11.57;6.75;;;12.00;71.90;;;;;;5093415;28;20070;-73
2022/05/31 04:42:44;;;;;;;8.77;5.68;;;12.00;71.70;;;;;;5093363;28;20088;-73
2022/05/31 04:45:10;;;;;;;8.73;6.25;;;11.90;71.80;;;;;;5093274;28;20028;-73
2022/05/31 04:47:36;;;;;;;12.40;6.40;;;12.00;71.80;;;;;;5093340;28;20021;-74
2022/05/31 04:50:01;;;;;;;12.10;7.13;;;12.00;71.70;;;;;;5093337;28;20471;-73
2022/05/31 04:52:27;;;;;;;11.52;7.00;;;12.10;71.70;;;;;;5093150;28;20045;-73
2022/05/31 04:54:54;;;;;;;13.13;8.10;;;12.20;71.70;;;;;;5093206;28;20088;-73
2022/05/31 04:57:19;;;;;;;12.52;7.70;;;12.20;71.80;;;;;;5093174;28;20035;-73
2022/05/31 04:59:45;;;;;;;13.60;6.90;;;12.20;71.60;;;;;;5093170;28;20029;-74
2022/05/31 05:02:11;;;;;;;9.73;6.75;;;12.20;71.20;;;;;;5093269;28;20029;-74
2022/05/31 05:04:37;;;;;;;11.68;6.82;;;12.10;71.20;;;;;;5093023;28;20016;-73
2022/05/31 05:07:03;;;;;;;11.32;6.72;;;12.10;71.60;;;;;;5093046;28;20048;-74
2022/05/31 05:09:29;;;;;;;10.05;6.65;;;12.00;71.60;;;;;;5093040;28;20029;-74
2022/05/31 05:11:54;;;;;;;11.90;7.47;;;12.10;71.70;;;;;;5093099;28;20024;-74
2022/05/31 05:14:20;;;;;;;10.52;7.03;;;12.10;71.70;;;;;;5093170;28;20055;-74
2022/05/31 05:16:46;;;;;;;13.18;7.00;;;12.20;72.30;;;;;;5092997;28;20088;-74
2022/05/31 05:19:12;;;;;;;12.57;6.70;;;12.10;72.50;;;;;;5092999;28;20025;-74
2022/05/31 05:21:38;;;;;;;12.38;7.10;;;12.10;72.60;;;;;;5092968;28;20021;-74
2022/05/31 05:24:04;;;;;;;15.18;7.28;;;12.10;72.70;;;;;;5092920;28;20025;-74
2022/05/31 05:26:30;;;;;;;14.35;6.78;;;12.20;72.90;;;;;;5092861;28;20017;-74
2022/05/31 05:31:41;;;;;;;10.07;7.25;;;12.10;74.00;;;;;;5096076;28;20039;-74
2022/05/31 05:34:07;;;;;;;12.30;7.38;;;12.20;73.20;;;;;;5096879;28;20039;-73
2022/05/31 05:36:34;;;;;;;13.45;7.80;;;12.30;73.00;;;;;;5096807;28;20020;-73
2022/05/31 05:39:00;;;;;;;12.50;7.45;;;12.40;72.70;;;;;;5095750;28;20037;-73
2022/05/31 05:41:28;;;;;;;11.75;7.45;;;12.50;72.60;;;;;;5096756;28;20051;-74
2022/05/31 05:43:54;;;;;;;11.10;7.50;;;12.50;72.20;;;;;;5096645;28;20104;-74
2022/05/31 05:46:28;;;;;;;16.38;8.25;;;12.50;72.20;;;;;;5096608;28;20036;-74
2022/05/31 05:48:54;;;;;;;11.45;7.63;;;12.50;72.40;;;;;;5096511;28;20021;-74
2022/05/31 05:51:23;;;;;;;14.00;8.57;;;12.40;72.50;;;;;;5096346;28;20053;-74
2022/05/31 05:53:50;;;;;;;16.48;8.32;;;12.50;72.90;;;;;;5096473;28;20107;-74
2022/05/31 05:56:16;;;;;;;15.38;7.82;;;12.40;72.90;;;;;;5096461;28;20028;-74
2022/05/31 05:58:43;;;;;;;15.02;8.60;;;12.40;72.90;;;;;;5096426;28;20012;-74
2022/05/31 06:01:26;;;;;;;14.00;7.97;;;12.50;72.80;;;;;;5096332;28;20028;-73
2022/05/31 06:04:04;;;;;;;13.07;8.10;;;12.50;72.90;;;;;;5096454;28;20074;-74
2022/05/31 06:06:32;;;;;;;13.15;8.20;;;12.50;73.80;;;;;;5096432;28;20036;-74
2022/05/31 06:09:04;;;;;;;13.80;7.78;;;12.40;73.70;;;;;;5096162;28;20036;-72
2022/05/31 06:11:42;;;;;;;10.98;7.35;;;12.40;73.50;;;;;;5096153;28;20035;-74
2022/05/31 06:14:22;;;;;;;12.82;7.68;;;12.40;73.30;;;;;;5096230;28;20024;-73
2022/05/31 06:16:55;;;;;;;13.55;7.50;;;12.40;73.70;;;;;;5095021;28;20021;-74
2022/05/31 06:19:26;;;;;;;12.18;7.93;;;12.30;74.00;;;;;;5096012;28;20036;-73
2022/05/31 06:21:52;;;;;;;12.15;7.85;;;12.30;74.90;;;;;;5096016;28;20027;-73
2022/05/31 06:24:19;;;;;;;14.02;7.85;;;12.20;74.90;;;;;;5094933;28;20028;-73
2022/05/31 06:26:45;;;;;;;12.07;7.68;;;12.20;75.10;;;;;;5095923;28;20076;-73
2022/05/31 06:29:11;;;;;;;12.15;8.10;;;12.30;74.90;;;;;;5095689;28;20040;-74
2022/05/31 06:31:38;;;;;;;13.40;8.43;;;12.30;74.80;;;;;;5095793;28;20037;-74
2022/05/31 06:34:04;;;;;;;13.93;8.18;;;12.20;74.70;;;;;;5095756;28;20027;-73
2022/05/31 06:36:30;;;;;;;15.10;7.93;;;12.30;76.00;;;;;;5095738;28;20048;-73
2022/05/31 06:38:56;;;;;;;11.25;7.07;;;12.20;75.30;;;;;;5095695;28;20024;-73
2022/05/31 06:41:22;;;;;;;11.30;8.25;;;12.20;75.30;;;;;;5094950;28;20056;-73
2022/05/31 06:43:47;;;;;;;16.88;8.15;;;12.20;75.50;;;;;;5094958;28;20042;-73
2022/05/31 06:46:13;;;;;;;12.13;7.53;;;12.30;75.60;;;;;;5095500;28;20024;-73
2022/05/31 06:48:40;;;;;;;13.25;8.40;;;12.30;75.70;;;;;;5095495;28;20017;-74
2022/05/31 06:51:12;;;;;;;12.02;7.50;;;12.30;76.80;;;;;;5095174;28;20499;-73
2022/05/31 06:59:06;;;;;;;15.13;8.32;;;12.60;76.20;;;;;;5095439;28;20051;-73
2022/05/31 07:01:32;;;;;;;12.90;7.95;;;12.60;76.00;;;;;;5095267;28;20496;-73
2022/05/31 07:03:59;;;;;;;13.30;8.30;;;12.60;76.00;;;;;;5095230;28;20025;-73
2022/05/31 07:06:25;;;;;;;12.15;7.95;;;12.60;76.00;;;;;;5095167;28;20034;-73
2022/05/31 07:08:50;;;;;;;13.75;7.85;;;12.60;75.50;;;;;;5095052;28;20088;-73
2022/05/31 07:11:16;;;;;;;13.70;7.93;;;12.60;75.50;;;;;;5095058;28;20036;-73
2022/05/31 07:13:42;;;;;;;14.80;8.38;;;12.70;75.70;;;;;;5094913;28;20024;-73
2022/05/31 07:16:07;;;;;;;14.90;8.20;;;12.70;75.70;;;;;;5094087;28;20020;-73
2022/05/31 07:18:33;;;;;;;13.23;8.60;;;12.70;75.70;;;;;;5094942;28;20492;-73
2022/05/31 07:20:59;;;;;;;13.70;8.13;;;12.80;76.00;;;;;;5094877;28;20025;-73
2022/05/31 07:23:25;;;;;;;14.57;8.00;;;12.80;75.30;;;;;;5094810;28;20441;-73
2022/05/31 07:25:52;;;;;;;11.27;7.90;;;12.90;75.40;;;;;;5094763;28;20016;-74
2022/05/31 07:28:18;;;;;;;13.02;7.82;;;12.90;75.10;;;;;;5094665;28;20021;-73
2022/05/31 07:30:44;;;;;;;14.77;8.00;;;13.00;75.10;;;;;;5094609;28;20080;-73
2022/05/31 07:33:11;;;;;;;15.07;7.47;;;13.00;75.10;;;;;;5094650;28;20049;-73
2022/05/31 07:35:39;;;;;;;12.70;7.50;;;13.10;74.80;;;;;;5094563;28;20047;-73
2022/05/31 07:38:05;;;;;;;9.60;6.95;;;13.10;74.30;;;;;;5094512;28;20028;-73
2022/05/31 07:40:31;;;;;;;11.50;7.60;;;13.10;74.20;;;;;;5094451;28;20028;-73
2022/05/31 07:42:56;;;;;;;12.35;7.25;;;13.20;74.50;;;;;;5094431;28;20063;-73
2022/05/31 07:45:23;;;;;;;12.65;7.07;;;13.20;74.40;;;;;;5093412;28;20033;-74
2022/05/31 07:47:49;;;;;;;10.88;6.97;;;13.30;74.30;;;;;;5094464;28;20048;-73
2022/05/31 07:50:14;;;;;;;11.93;7.07;;;13.40;74.00;;;;;;5094207;28;20082;-73
2022/05/31 07:52:41;;;;;;;10.40;6.55;;;13.40;73.40;;;;;;5093991;28;20052;-73
2022/05/31 07:55:07;;;;;;;10.77;5.85;;;13.40;74.50;;;;;;5094141;28;20042;-73
2022/05/31 08:00:17;;;;;;;14.00;6.40;;;13.40;73.20;;;;;;5094256;28;20062;-74
2022/05/31 08:02:43;;;;;;;10.88;6.57;;;13.50;73.00;;;;;;5093082;28;20029;-73
2022/05/31 08:05:08;;;;;;;9.25;5.88;;;13.60;73.00;;;;;;5093947;28;20041;-74
2022/05/31 08:07:34;;;;;;;8.80;5.57;;;13.70;72.50;;;;;;5092880;28;20036;-73
2022/05/31 08:10:00;;;;;;;10.68;5.95;;;13.80;72.70;;;;;;5093809;28;20041;-73
2022/05/31 08:12:25;;;;;;;14.68;6.55;;;13.80;72.50;;;;;;5093870;28;20029;-74
2022/05/31 08:14:51;;;;;;;12.27;6.15;;;13.90;72.10;;;;;;5093790;28;20028;-73
2022/05/31 08:17:17;;;;;;;10.70;5.90;;;13.90;72.60;;;;;;5093744;28;20024;-73
2022/05/31 08:19:43;;;;;;;10.48;6.57;;;13.90;72.70;;;;;;5093732;28;20025;-72
2022/05/31 08:22:08;;;;;;;11.15;6.40;;;14.00;71.70;;;;;;5093662;28;20036;-73
2022/05/31 08:24:34;;;;;;;10.25;6.20;;;14.10;72.20;;;;;;5093641;28;20039;-73
2022/05/31 08:27:00;;;;;;;9.57;6.05;;;14.20;70.50;;;;;;5093623;28;20035;-73
2022/05/31 08:29:27;;;;;;;12.18;6.40;;;14.20;69.90;;;;;;5093433;28;20024;-74
2022/05/31 08:31:52;;;;;;;9.80;5.55;;;14.30;70.80;;;;;;5093571;28;20047;-73
2022/05/31 08:34:19;;;;;;;9.05;5.55;;;14.50;69.60;;;;;;5093473;28;20040;-73
2022/05/31 08:36:45;;;;;;;10.63;5.82;;;14.50;69.20;;;;;;5093494;28;20036;-73
2022/05/31 08:39:10;;;;;;;10.38;5.38;;;14.70;69.30;;;;;;5093437;28;20048;-73
2022/05/31 08:41:43;;;;;;;8.98;5.60;;;14.80;69.70;;;;;;5093440;28;20028;-73
2022/05/31 08:44:21;;;;;;;8.10;5.28;;;14.90;69.30;;;;;;5093434;28;20028;-73
2022/05/31 08:47:07;;;;;;;7.85;4.95;;;15.00;69.20;;;;;;5093516;28;20052;-74
2022/05/31 08:53:11;;;;;;;7.35;5.18;;;15.30;65.40;;;;;;5093451;28;20044;-73
2022/05/31 08:58:46;;;;;;;6.85;4.20;;;15.40;64.20;;;;;;5093473;28;20035;-74
2022/05/31 09:01:16;;;;;;;7.43;4.30;;;15.50;61.60;;;;;;5093223;28;20025;-73
2022/05/31 09:04:14;;;;;;;6.82;4.35;;;15.50;63.80;;;;;;5093193;28;20028;-73
2022/05/31 09:06:56;;;;;;;7.72;4.80;;;15.70;62.80;;;;;;5068140;28;20078;-74
2022/05/31 09:09:26;;;;;;;7.25;4.38;;;15.80;64.10;;;;;;5093063;28;20025;-73
2022/05/31 09:12:16;;;;;;;5.75;4.10;;;15.90;60.00;;;;;;5093141;28;20040;-74
2022/05/31 09:15:01;;;;;;;6.80;4.38;;;16.00;59.20;;;;;;5093173;28;20045;-74
2022/05/31 09:17:51;;;;;;;6.70;4.05;;;16.10;60.50;;;;;;5093078;28;20028;-74
2022/05/31 09:20:50;;;;;;;8.27;4.60;;;16.20;59.60;;;;;;5093048;28;20025;-73
2022/05/31 09:23:22;;;;;;;7.05;4.78;;;16.30;61.10;;;;;;5093193;28;20100;-74
2022/05/31 09:25:58;;;;;;;5.55;3.58;;;16.40;59.30;;;;;;5092993;28;20031;-73
2022/05/31 09:28:52;;;;;;;6.38;4.07;;;16.40;58.00;;;;;;5092911;28;20080;-74
2022/05/31 09:31:40;;;;;;;6.95;4.38;;;16.40;56.60;;;;;;5092941;28;20118;-74
2022/05/31 09:34:22;;;;;;;6.63;4.28;;;16.40;56.50;;;;;;5092940;28;20013;-74
2022/05/31 09:37:13;;;;;;;5.57;3.95;;;16.30;57.60;;;;;;5093055;28;20013;-74
2022/05/31 09:40:09;;;;;;;5.93;3.22;;;16.50;57.30;;;;;;5092945;28;20028;-74
2022/05/31 09:43:01;;;;;;;5.35;3.40;;;16.60;55.60;;;;;;5092875;28;20036;-74
2022/05/31 09:45:31;;;;;;;5.13;3.75;;;16.80;55.20;;;;;;5089796;28;20049;-74
2022/05/31 09:48:00;;;;;;;5.75;3.85;;;16.80;53.70;;;;;;5092815;28;20087;-75
2022/05/31 09:50:28;;;;;;;4.95;3.42;;;16.80;54.60;;;;;;5092461;28;20395;-74
2022/05/31 09:52:57;;;;;;;4.68;3.35;;;16.80;55.10;;;;;;5092734;28;20029;-74
2022/05/31 09:58:29;;;;;;;5.60;3.47;;;16.80;52.50;;;;;;5092883;28;20039;-75
2022/05/31 10:01:27;;;;;;;6.28;4.05;;;16.70;53.80;;;;;;5092695;28;20368;-74
2022/05/31 10:03:59;;;;;;;7.18;4.00;;;16.90;54.10;;;;;;5092728;28;20028;-74
2022/05/31 10:06:30;;;;;;;;;;;17.00;55.00;;;;;;5093177;28;20025;-74
2022/05/31 10:08:56;;;;;;;6.15;4.30;;;17.10;55.00;;;;;;5092501;28;19943;-74
2022/05/31 10:11:43;;;;;;;6.03;3.80;;;17.20;55.30;;;;;;5092513;28;20071;-74
2022/05/31 10:14:20;;;;;;;6.20;3.53;;;17.30;54.50;;;;;;5092555;28;20021;-75
2022/05/31 10:16:49;;;;;;;6.82;3.75;;;17.50;54.40;;;;;;5093943;28;20024;-75
2022/05/31 10:19:27;;;;;;;6.63;4.20;;;17.40;51.90;;;;;;5096066;28;20032;-75
2022/05/31 10:21:53;;;;;;;6.43;3.63;;;17.50;52.30;;;;;;5095992;28;20048;-75
2022/05/31 10:24:26;;;;;;;7.20;3.75;;;17.50;51.60;;;;;;5095975;28;20084;-75
2022/05/31 10:27:21;;;;;;;6.07;3.88;;;17.50;51.70;;;;;;5095958;28;20025;-74
2022/05/31 10:29:52;;;;;;;6.35;3.90;;;17.60;52.70;;;;;;5095722;28;20025;-74
2022/05/31 10:32:34;;;;;;;7.00;4.32;;;17.60;52.60;;;;;;5095881;28;20024;-75
2022/05/31 10:35:21;;;;;;;9.55;4.15;;;17.80;54.40;;;;;;5095856;28;20020;-75
2022/05/31 10:38:04;;;;;;;6.85;4.22;;;17.90;51.50;;;;;;5095717;28;20098;-74
2022/05/31 10:40:47;;;;;;;7.65;4.43;;;18.00;51.00;;;;;;5095692;28;20031;-75
2022/05/31 10:43:19;;;;;;;7.50;4.28;;;18.00;48.90;;;;;;5095584;28;20039;-75
2022/05/31 10:45:45;;;;;;;8.23;4.90;;;17.90;49.30;;;;;;5095552;28;20402;-75
2022/05/31 10:48:10;;;;;;;6.47;4.40;;;18.00;52.60;;;;;;5095537;28;20093;-75
2022/05/31 10:51:05;;;;;;;9.25;4.80;;;18.10;50.10;;;;;;5095223;28;20040;-74
2022/05/31 10:53:52;;;;;;;7.22;4.47;;;18.20;51.70;;;;;;5088816;28;20040;-74
2022/05/31 10:56:27;;;;;;;7.53;4.65;;;18.30;51.40;;;;;;5095588;28;20025;-74
2022/05/31 10:59:00;;;;;;;8.68;4.20;;;18.20;50.40;;;;;;5095474;28;20062;-75
2022/05/31 11:01:49;;;;;;;5.82;3.90;;;18.30;49.70;;;;;;5095315;28;20043;-75
2022/05/31 11:04:27;;;;;;;7.15;3.95;;;18.30;47.90;;;;;;5095266;28;20008;-75
2022/05/31 11:07:13;;;;;;;6.68;3.65;;;18.30;48.50;;;;;;5095317;28;20021;-74
2022/05/31 11:13:11;;;;;;;6.65;4.00;;;18.60;48.20;;;;;;5095245;28;20040;-74
2022/05/31 11:16:11;;;;;;;5.18;3.75;;;18.80;48.30;;;;;;5095175;28;20021;-75
2022/05/31 11:19:01;;;;;;;7.63;4.35;;;18.90;46.40;;;;;;5093999;28;20111;-75
2022/05/31 11:21:56;;;;;;;8.27;4.63;;;19.00;48.20;;;;;;5095067;28;20027;-75
2022/05/31 11:25:00;;;;;;;9.15;4.60;;;19.10;49.70;;;;;;5070568;28;20052;-74
2022/05/31 11:27:37;;;;;;;9.48;4.50;;;19.00;45.70;;;;;;5032853;28;20030;-75
2022/05/31 11:30:16;;;;;;;6.60;4.20;;;18.80;46.60;;;;;;5032778;28;20090;-74
2022/05/31 11:33:17;;;;;;;6.90;4.30;;;18.70;47.50;;;;;;5072000;28;20039;-75
2022/05/31 11:36:03;;;;;;;8.77;4.97;;;18.80;48.00;;;;;;5094481;28;20029;-75
2022/05/31 11:38:57;;;;;;;7.93;4.57;;;18.80;46.60;;;;;;5094573;28;20024;-75
2022/05/31 11:41:33;;;;;;;14.32;5.65;;;18.80;47.50;;;;;;5093527;28;20021;-75
2022/05/31 11:44:20;;;;;;;8.23;5.07;;;18.80;48.60;;;;;;5094529;28;20079;-76
2022/05/31 11:47:12;;;;;;;8.15;4.78;;;18.80;48.10;;;;;;5094374;28;20021;-75
2022/05/31 11:49:37;;;;;;;7.03;5.03;;;18.70;47.70;;;;;;5094335;28;20118;-75
2022/05/31 11:52:15;;;;;;;7.68;5.00;;;18.70;46.40;;;;;;5094036;28;20291;-75
2022/05/31 11:54:41;;;;;;;9.63;5.03;;;18.50;46.50;;;;;;5093285;28;20027;-75
2022/05/31 11:57:10;;;;;;;8.68;5.03;;;18.40;47.20;;;;;;5094168;28;20016;-75
2022/05/31 11:59:50;;;;;;;6.00;4.35;;;18.40;48.20;;;;;;5094217;28;20035;-75
2022/05/31 12:02:47;;;;;;;8.95;4.75;;;18.40;47.30;;;;;;5094155;28;20025;-75
2022/05/31 12:05:33;;;;;;;7.50;4.60;;;18.40;45.70;;;;;;5094077;28;20016;-75
2022/05/31 12:08:02;;;;;;;8.02;4.13;;;18.30;47.80;;;;;;5093971;28;20034;-74
2022/05/31 12:10:32;;;;;;;6.43;4.60;;;18.40;47.70;;;;;;5093962;28;20037;-75
2022/05/31 12:13:04;;;;;;;18.65;6.53;;;18.30;46.90;;;;;;5092799;28;20031;-75
2022/05/31 12:15:31;;;;;;;;;;;18.40;47.20;;;;;;5094286;28;20076;-75
2022/05/31 12:18:12;;;;;;;18.83;6.65;;;18.40;48.00;;;;;;5093740;28;19905;-75
2022/05/31 12:20:42;;;;;;;28.33;9.27;;;18.40;48.90;;;;;;5093706;28;20029;-75
2022/05/31 12:23:28;;;;;;;13.50;5.18;;;18.30;48.70;;;;;;5093675;28;20161;-75
2022/05/31 12:25:58;;;;;;;24.45;7.90;;;18.20;48.10;;;;;;5093774;28;20035;-75
2022/05/31 12:28:52;;;;;;;21.23;7.82;;;18.20;49.80;;;;;;5093534;28;20016;-75
2022/05/31 12:31:29;;;;;;;9.88;5.10;;;18.20;49.20;;;;;;5093122;28;20040;-74
2022/05/31 12:34:33;;;;;;;7.10;5.15;;;18.20;49.60;;;;;;5093594;28;20024;-75
2022/05/31 12:37:05;;;;;;;6.30;3.70;;;18.20;49.50;;;;;;5093440;28;20035;-74
2022/05/31 12:39:33;;;;;;;5.72;3.60;;;17.90;46.10;;;;;;5093389;28;20035;-74
2022/05/31 12:42:14;;;;;;;12.48;3.85;;;17.70;47.20;;;;;;5092329;28;20017;-74
2022/05/31 12:44:48;;;;;;;25.55;6.03;;;17.70;48.10;;;;;;5093382;28;20052;-74
2022/05/31 12:47:26;;;;;;;6.38;3.25;;;17.70;49.40;;;;;;5093430;28;20020;-75
2022/05/31 12:50:39;;;;;;;3.63;2.72;;;17.70;47.20;;;;;;5093283;28;20030;-74
2022/05/31 12:55:36;;;;;;;4.57;2.40;;;17.70;46.90;;;;;;5093342;28;19968;-74
2022/05/31 12:58:39;;;;;;;3.58;2.80;;;17.70;47.60;;;;;;5093174;28;20027;-74
2022/05/31 13:01:10;;;;;;;5.03;3.30;;;17.80;47.50;;;;;;5093287;28;20024;-74
2022/05/31 13:03:42;;;;;;;5.70;3.15;;;17.90;47.00;;;;;;5093365;28;20029;-74
2022/05/31 13:06:09;;;;;;;3.25;2.90;;;18.00;47.00;;;;;;5093365;28;20054;-74
2022/05/31 13:08:52;;;;;;;3.45;2.50;;;18.00;46.10;;;;;;5093141;28;20024;-74
2022/05/31 13:20:13;;;;;;;3.95;2.63;;;17.60;45.20;;;;;;5093045;28;20035;-74
2022/05/31 13:22:42;;;;;;;3.50;2.70;;;17.60;46.40;;;;;;5093187;28;20020;-74
2022/05/31 13:25:18;;;;;;;4.25;2.80;;;17.60;46.60;;;;;;5093016;28;20021;-74
2022/05/31 13:27:51;;;;;;;4.35;2.90;;;17.60;46.90;;;;;;5092846;28;20044;-74
2022/05/31 13:30:19;;;;;;;5.57;3.20;;;17.60;47.70;;;;;;5092914;28;20084;-74
2022/05/31 13:32:46;;;;;;;3.72;2.42;;;17.70;47.30;;;;;;5092928;28;20487;-73
2022/05/31 13:35:13;;;;;;;3.47;2.38;;;17.80;46.50;;;;;;5092986;28;20032;-74
2022/05/31 13:37:59;;;;;;;3.67;2.17;;;18.10;45.80;;;;;;5092838;28;20013;-74
2022/05/31 13:40:47;;;;;;;5.85;2.42;;;18.40;45.80;;;;;;5091934;28;20025;-74
2022/05/31 13:43:24;;;;;;;3.72;2.33;;;18.40;44.40;;;;;;5092861;28;20024;-74